Archimede — IXZR — position and weather

sailwx.info

Track history (hours):
 
Tides and Currents Weather Stations Pressure Air Temp Water Temp Dewpoint Dewpoint Depression Visibility Wind Speed Wind Dir Waves Ship Positions

Archimede

Last reported at 2014-Jul-31 15:32 UTC. Time now 2014-Jul-31 23:49 UTC.
Position N 38°13' E 015°36'.

; draft 3.1 m.

Type: Passenger vessel. MMSI: 247054700.

Date/timePositionNaut miles runAvg speedWind from/ knotsBaromVisibWave heightAir tempDewpointWater temp
2014-Jul-31 15:32N 38°13' E 015°36'1 1.5
2014-Jul-31 14:33N 38°13' E 015°38'3 2.6
2014-Jul-31 13:24N 38°13' E 015°34'3 3.5
2014-Jul-31 12:32N 38°13' E 015°38'2 1.8
2014-Jul-31 11:18N 38°13' E 015°35'2 2.9
2014-Jul-31 10:32N 38°13' E 015°38'2 1.3
2014-Jul-31 09:14N 38°13' E 015°36'2 1.0
2014-Jul-31 07:33N 38°13' E 015°38'1 0.7
2014-Jul-31 06:29N 38°13' E 015°37'1 0.1
2014-Jul-30 17:33N 38°13' E 015°38'0 0.0
2014-Jul-30 15:33N 38°13' E 015°38'  
Track history (hours):
 
Tides and Currents Weather Stations Pressure Air Temp Water Temp Dewpoint Dewpoint Depression Visibility Wind Speed Wind Dir Waves Ship Positions

Archimede

Last reported at 2014-Jul-31 15:32 UTC. Time now 2014-Jul-31 23:49 UTC.
Position N 38°13' E 015°36'.

; draft 3.1 m.

Type: Passenger vessel. MMSI: 247054700.

Date/timePositionNaut miles runAvg speedWind from/ knotsBaromVisibWave heightAir tempDewpointWater temp
2014-Jul-31 15:32N 38°13' E 015°36'1 1.5
2014-Jul-31 14:33N 38°13' E 015°38'3 2.6
2014-Jul-31 13:24N 38°13' E 015°34'3 3.5
2014-Jul-31 12:32N 38°13' E 015°38'2 1.8
2014-Jul-31 11:18N 38°13' E 015°35'2 2.9
2014-Jul-31 10:32N 38°13' E 015°38'2 1.3
2014-Jul-31 09:14N 38°13' E 015°36'2 1.0
2014-Jul-31 07:33N 38°13' E 015°38'1 0.7
2014-Jul-31 06:29N 38°13' E 015°37'1 0.1
2014-Jul-30 17:33N 38°13' E 015°38'0 0.0
2014-Jul-30 15:33N 38°13' E 015°38'  

Dump ship's entire track history